createdAt,value
2022-11-29T00:01:32.408Z,41.30
2022-11-29T00:03:59.845Z,44.05
2022-11-29T00:06:30.881Z,42.38
2022-11-29T00:09:06.168Z,37.00
2022-11-29T00:11:54.297Z,32.28
2022-11-29T00:14:22.875Z,44.92
2022-11-29T00:16:52.829Z,47.05
2022-11-29T00:19:20.579Z,40.00
2022-11-29T00:21:47.619Z,40.03
2022-11-29T00:24:14.927Z,46.65
2022-11-29T00:26:41.954Z,38.75
2022-11-29T00:29:11.959Z,31.77
2022-11-29T00:31:40.015Z,41.13
2022-11-29T00:34:07.688Z,42.40
2022-11-29T00:36:35.550Z,37.13
2022-11-29T00:39:04.945Z,47.38
2022-11-29T00:41:32.650Z,43.53
2022-11-29T00:43:59.713Z,61.15
2022-11-29T00:46:26.877Z,66.95
2022-11-29T00:48:53.898Z,51.88
2022-11-29T00:51:20.905Z,55.30
2022-11-29T00:53:48.104Z,39.47
2022-11-29T00:56:15.308Z,40.75
2022-11-29T00:58:43.493Z,36.63
2022-11-29T01:01:11.643Z,40.00
2022-11-29T01:03:38.905Z,43.88
2022-11-29T01:06:15.370Z,52.25
2022-11-29T01:08:43.163Z,48.47
2022-11-29T01:11:22.374Z,45.08
2022-11-29T01:13:51.241Z,59.63
2022-11-29T01:16:18.622Z,49.85
2022-11-29T01:18:45.753Z,52.78
2022-11-29T01:21:22.819Z,46.95
2022-11-29T01:23:51.488Z,48.80
2022-11-29T01:26:24.483Z,39.20
2022-11-29T01:28:53.638Z,54.47
2022-11-29T01:31:24.503Z,56.05
2022-11-29T01:33:55.531Z,42.25
2022-11-29T01:36:23.750Z,42.20
2022-11-29T01:38:51.501Z,39.70
2022-11-29T01:41:22.326Z,40.90
2022-11-29T01:43:58.663Z,44.53
2022-11-29T01:46:27.074Z,50.53
2022-11-29T01:48:57.424Z,38.05
2022-11-29T01:51:27.460Z,43.05
2022-11-29T01:53:55.707Z,49.20
2022-11-29T01:56:24.207Z,48.50
2022-11-29T01:58:51.641Z,43.47
2022-11-29T02:01:18.951Z,49.20
2022-11-29T02:03:46.619Z,46.72
2022-11-29T02:06:15.847Z,47.50
2022-11-29T02:08:43.735Z,55.10
2022-11-29T02:11:28.940Z,47.53
2022-11-29T02:14:33.041Z,47.20
2022-11-29T02:17:30.858Z,41.92
2022-11-29T02:20:00.596Z,55.03
2022-11-29T02:22:41.248Z,52.05
2022-11-29T02:25:32.571Z,44.15
2022-11-29T02:28:33.892Z,42.05
2022-11-29T02:31:33.494Z,42.22
2022-11-29T02:34:06.295Z,44.45
2022-11-29T02:36:36.217Z,41.38
2022-11-29T02:39:15.141Z,39.55
2022-11-29T02:42:12.701Z,45.90
2022-11-29T02:44:54.187Z,37.78
2022-11-29T02:47:32.476Z,40.42
2022-11-29T02:50:08.180Z,35.38
2022-11-29T02:52:47.645Z,34.83
2022-11-29T02:55:29.569Z,41.08
2022-11-29T02:58:06.261Z,45.20
2022-11-29T03:00:38.989Z,46.20
2022-11-29T03:03:31.656Z,50.90
2022-11-29T03:06:36.218Z,42.75
2022-11-29T03:09:17.337Z,44.80
2022-11-29T03:12:07.704Z,41.38
2022-11-29T03:14:59.293Z,37.70
2022-11-29T03:17:40.657Z,35.40
2022-11-29T03:20:23.848Z,33.92
2022-11-29T03:23:14.853Z,32.83
2022-11-29T03:25:54.942Z,30.33
2022-11-29T03:28:28.888Z,26.67
2022-11-29T03:31:11.272Z,26.90
2022-11-29T03:33:54.778Z,26.05
2022-11-29T03:36:30.833Z,37.15
2022-11-29T03:39:03.009Z,30.42
2022-11-29T03:41:39.143Z,30.77
2022-11-29T03:44:18.837Z,37.42
2022-11-29T03:47:04.578Z,46.15
2022-11-29T03:49:47.354Z,42.75
2022-11-29T03:55:08.912Z,43.88
2022-11-29T03:58:01.839Z,45.60
2022-11-29T04:00:50.682Z,44.25
2022-11-29T04:03:37.414Z,45.38
2022-11-29T04:06:24.376Z,38.63
2022-11-29T04:09:43.105Z,44.78
2022-11-29T04:12:28.943Z,39.65
2022-11-29T04:15:32.541Z,50.13
2022-11-29T04:18:36.403Z,60.35
2022-11-29T04:21:39.572Z,49.22
2022-11-29T04:27:10.234Z,51.90
2022-11-29T04:30:08.246Z,47.28
2022-11-29T04:33:10.090Z,43.97
2022-11-29T04:36:12.293Z,47.88
2022-11-29T04:38:39.222Z,46.83
2022-11-29T04:41:19.749Z,48.55
2022-11-29T04:44:07.891Z,51.22
2022-11-29T04:47:03.388Z,50.50
2022-11-29T04:50:01.890Z,41.67
2022-11-29T04:52:40.944Z,43.67
2022-11-29T04:56:02.062Z,48.55
2022-11-29T04:59:04.563Z,54.03
2022-11-29T05:01:50.376Z,57.80
2022-11-29T05:04:26.848Z,74.45
2022-11-29T05:07:11.698Z,70.85
2022-11-29T05:09:55.284Z,89.32
2022-11-29T05:12:29.407Z,70.00
2022-11-29T05:15:17.097Z,80.40
2022-11-29T05:17:58.567Z,60.58
2022-11-29T05:20:41.884Z,76.82
2022-11-29T05:23:46.280Z,91.03
2022-11-29T05:26:22.633Z,67.80
2022-11-29T05:29:05.035Z,76.75
2022-11-29T05:31:55.110Z,60.83
2022-11-29T05:34:35.222Z,64.10
2022-11-29T05:37:11.503Z,70.63
2022-11-29T05:39:47.281Z,63.97
2022-11-29T05:42:44.876Z,66.65
2022-11-29T05:45:24.484Z,58.90
2022-11-29T05:48:02.122Z,59.03
2022-11-29T05:51:03.244Z,67.30
2022-11-29T05:53:39.899Z,61.42
2022-11-29T05:56:44.741Z,57.45
2022-11-29T05:59:28.565Z,64.97
2022-11-29T06:02:04.809Z,64.10
2022-11-29T06:04:39.386Z,58.20
2022-11-29T06:07:26.688Z,57.83
2022-11-29T06:10:02.056Z,50.50
2022-11-29T06:12:35.624Z,53.92
2022-11-29T06:15:33.725Z,64.50
2022-11-29T06:18:49.356Z,54.85
2022-11-29T06:21:38.386Z,56.17
2022-11-29T06:24:21.940Z,50.63
2022-11-29T06:27:10.454Z,52.47
2022-11-29T06:30:07.315Z,55.97
2022-11-29T06:33:01.233Z,84.07
2022-11-29T06:35:40.735Z,63.85
2022-11-29T06:38:20.258Z,71.60
2022-11-29T06:40:48.624Z,58.08
2022-11-29T06:43:16.073Z,57.72
2022-11-29T06:45:50.307Z,60.83
2022-11-29T06:48:25.380Z,64.72
2022-11-29T06:51:08.239Z,58.22
2022-11-29T06:56:41.406Z,58.15
2022-11-29T06:59:27.393Z,48.35
2022-11-29T07:02:20.838Z,50.28
2022-11-29T07:05:12.736Z,55.78
2022-11-29T07:07:41.623Z,61.63
2022-11-29T07:10:15.479Z,57.63
2022-11-29T07:12:43.892Z,47.30
2022-11-29T07:15:20.208Z,48.55
2022-11-29T07:18:02.980Z,52.83
2022-11-29T07:23:25.352Z,71.43
2022-11-29T07:28:56.594Z,72.97
2022-11-29T07:31:45.437Z,52.13
2022-11-29T07:34:38.875Z,48.33
2022-11-29T07:37:52.840Z,46.72
2022-11-29T07:40:26.513Z,48.45
2022-11-29T07:43:17.573Z,46.65
2022-11-29T07:45:45.716Z,46.72
2022-11-29T07:48:13.260Z,42.40
2022-11-29T07:50:40.993Z,54.38
2022-11-29T07:53:15.583Z,43.00
2022-11-29T07:55:42.895Z,36.75
2022-11-29T07:58:12.560Z,40.10
2022-11-29T08:00:40.493Z,39.15
2022-11-29T08:03:08.468Z,32.55
2022-11-29T08:05:36.945Z,34.60
2022-11-29T08:08:04.654Z,37.90
2022-11-29T08:10:31.952Z,27.58
2022-11-29T08:12:58.957Z,35.67
2022-11-29T08:15:26.066Z,31.02
2022-11-29T08:17:53.326Z,38.33
2022-11-29T08:20:20.402Z,35.75
2022-11-29T08:22:58.542Z,36.13
2022-11-29T08:25:27.341Z,34.25
2022-11-29T08:27:54.842Z,35.08
2022-11-29T08:30:22.605Z,33.97
2022-11-29T08:32:51.772Z,31.77
2022-11-29T08:35:21.259Z,32.55
2022-11-29T08:37:48.769Z,39.17
2022-11-29T08:40:16.641Z,38.15
2022-11-29T08:42:43.644Z,37.95
2022-11-29T08:45:11.351Z,33.55
2022-11-29T08:47:41.027Z,37.38
2022-11-29T08:50:16.591Z,33.75
2022-11-29T08:53:04.521Z,38.85
2022-11-29T08:55:34.785Z,44.10
2022-11-29T08:58:08.175Z,50.67
2022-11-29T09:00:37.255Z,45.90
2022-11-29T09:03:25.172Z,47.72
2022-11-29T09:05:52.830Z,52.08
2022-11-29T09:08:20.060Z,63.03
2022-11-29T09:10:47.461Z,46.95
2022-11-29T09:13:14.932Z,41.33
2022-11-29T09:15:43.352Z,41.25
2022-11-29T09:18:10.467Z,36.33
2022-11-29T09:20:37.441Z,38.25
2022-11-29T09:23:04.702Z,37.13
2022-11-29T09:25:31.748Z,48.17
2022-11-29T09:28:01.786Z,38.75
2022-11-29T09:30:32.395Z,31.92
2022-11-29T09:33:02.588Z,36.78
2022-11-29T09:35:29.916Z,30.55
2022-11-29T09:37:56.958Z,27.30
2022-11-29T09:40:33.863Z,25.58
2022-11-29T09:43:14.053Z,29.42
2022-11-29T09:45:45.361Z,28.27
2022-11-29T09:48:30.968Z,31.60
2022-11-29T09:51:27.353Z,33.33
2022-11-29T09:54:12.779Z,28.83
2022-11-29T09:56:46.331Z,31.60
2022-11-29T09:59:31.526Z,26.40
2022-11-29T10:02:06.046Z,27.60
2022-11-29T10:04:40.279Z,24.10
2022-11-29T10:07:27.958Z,24.30
2022-11-29T10:10:06.742Z,26.13
2022-11-29T10:13:04.982Z,30.33
2022-11-29T10:15:39.090Z,36.83
2022-11-29T10:18:24.489Z,28.20
2022-11-29T10:20:57.462Z,26.23
2022-11-29T10:23:24.467Z,25.05
2022-11-29T10:25:54.309Z,30.50
2022-11-29T10:28:25.777Z,32.03
2022-11-29T10:30:54.513Z,30.08
2022-11-29T10:33:28.919Z,27.90
2022-11-29T10:35:59.329Z,24.17
2022-11-29T10:38:31.162Z,20.38
2022-11-29T10:41:09.528Z,16.80
2022-11-29T10:43:37.700Z,19.00
2022-11-29T10:46:06.339Z,21.23
2022-11-29T10:48:34.154Z,18.58
2022-11-29T10:51:01.590Z,21.95
2022-11-29T10:53:37.004Z,18.30
2022-11-29T10:56:08.703Z,21.25
2022-11-29T10:58:36.456Z,21.07
2022-11-29T11:01:08.506Z,18.80
2022-11-29T11:03:52.810Z,22.77
2022-11-29T11:06:23.124Z,15.55
2022-11-29T11:08:54.428Z,14.18
2022-11-29T11:11:31.312Z,14.63
2022-11-29T11:14:18.567Z,18.90
2022-11-29T11:16:45.608Z,13.18
2022-11-29T11:19:28.542Z,16.73
2022-11-29T11:24:32.223Z,13.35
2022-11-29T11:27:00.446Z,16.88
2022-11-29T11:29:39.545Z,14.40
2022-11-29T11:32:18.622Z,19.08
2022-11-29T11:34:57.499Z,12.80
2022-11-29T11:37:33.033Z,14.02
2022-11-29T11:40:31.429Z,28.77
2022-11-29T11:43:01.148Z,14.93
2022-11-29T11:45:36.633Z,19.38
2022-11-29T11:48:15.400Z,15.23
2022-11-29T11:50:45.105Z,20.02
2022-11-29T11:53:27.463Z,15.25
2022-11-29T11:55:59.098Z,15.55
2022-11-29T11:58:32.705Z,18.45
2022-11-29T12:01:14.518Z,19.50
2022-11-29T12:03:56.804Z,8.63
2022-11-29T12:06:48.676Z,27.10
2022-11-29T12:09:37.351Z,11.45
2022-11-29T12:12:21.150Z,22.13
2022-11-29T12:14:52.672Z,16.77
2022-11-29T12:17:41.281Z,23.38
2022-11-29T12:20:23.976Z,20.25
2022-11-29T12:23:11.027Z,20.20
2022-11-29T12:25:51.857Z,17.15
2022-11-29T12:28:21.029Z,17.02
2022-11-29T12:31:26.803Z,10.25
2022-11-29T12:34:05.683Z,19.73
2022-11-29T12:37:02.468Z,21.48
2022-11-29T12:39:57.642Z,15.93
2022-11-29T12:42:38.302Z,19.50
2022-11-29T12:45:19.548Z,14.68
2022-11-29T12:48:05.037Z,15.80
2022-11-29T12:50:59.779Z,15.60
2022-11-29T12:54:12.017Z,18.63
2022-11-29T12:57:05.297Z,22.10
2022-11-29T12:59:50.897Z,15.45
2022-11-29T13:02:54.419Z,18.33
2022-11-29T13:05:30.554Z,23.45
2022-11-29T13:08:16.477Z,23.45
2022-11-29T13:10:58.063Z,19.63
2022-11-29T13:13:39.552Z,22.48
2022-11-29T13:16:25.079Z,22.85
2022-11-29T13:19:04.519Z,19.52
2022-11-29T13:21:55.439Z,19.55
2022-11-29T13:24:32.320Z,23.25
2022-11-29T13:27:03.921Z,21.83
2022-11-29T13:29:31.308Z,29.67
2022-11-29T13:31:58.845Z,22.15
2022-11-29T13:34:36.233Z,31.77
2022-11-29T13:37:26.590Z,23.80
2022-11-29T13:40:38.118Z,23.40
2022-11-29T13:43:23.501Z,31.48
2022-11-29T13:46:19.510Z,22.67
2022-11-29T13:48:47.774Z,19.48
2022-11-29T13:51:25.854Z,25.50
2022-11-29T13:53:55.029Z,29.52
2022-11-29T13:56:36.053Z,19.83
2022-11-29T13:59:08.813Z,24.60
2022-11-29T14:01:50.909Z,23.60
2022-11-29T14:04:35.976Z,22.67
2022-11-29T14:07:07.552Z,20.55
2022-11-29T14:09:42.025Z,28.73
2022-11-29T14:12:26.317Z,16.85
2022-11-29T14:15:18.235Z,24.40
2022-11-29T14:17:52.656Z,19.95
2022-11-29T14:20:22.722Z,24.73
2022-11-29T14:23:14.436Z,29.75
2022-11-29T14:26:02.969Z,19.65
2022-11-29T14:28:32.629Z,28.75
2022-11-29T14:31:04.882Z,20.73
2022-11-29T14:33:46.188Z,26.55
2022-11-29T14:36:18.924Z,27.73
2022-11-29T14:39:01.992Z,28.77
2022-11-29T14:41:50.573Z,18.70
2022-11-29T14:44:24.613Z,23.25
2022-11-29T14:47:06.413Z,18.60
2022-11-29T14:49:41.795Z,23.02
2022-11-29T14:52:18.733Z,26.33
2022-11-29T14:54:56.585Z,23.15
2022-11-29T14:57:51.724Z,21.38
2022-11-29T15:00:23.294Z,33.50
2022-11-29T15:02:57.814Z,30.42
2022-11-29T15:05:31.972Z,23.00
2022-11-29T15:08:13.118Z,31.70
2022-11-29T15:10:44.820Z,24.55
2022-11-29T15:13:18.693Z,21.60
2022-11-29T15:16:19.901Z,17.48
2022-11-29T15:19:18.092Z,19.45
2022-11-29T15:22:17.471Z,25.95
2022-11-29T15:24:52.837Z,39.60
2022-11-29T15:27:20.304Z,28.95
2022-11-29T15:29:50.485Z,25.85
2022-11-29T15:32:32.582Z,26.10
2022-11-29T15:34:59.869Z,23.92
2022-11-29T15:37:36.568Z,35.08
2022-11-29T15:40:10.675Z,34.30
2022-11-29T15:42:44.085Z,34.55
2022-11-29T15:45:26.004Z,42.55
2022-11-29T15:47:53.514Z,36.63
2022-11-29T15:50:31.939Z,41.03
2022-11-29T15:53:07.810Z,32.88
2022-11-29T15:55:35.714Z,47.75
2022-11-29T15:58:08.668Z,28.15
2022-11-29T16:00:36.684Z,35.67
2022-11-29T16:03:05.342Z,33.85
2022-11-29T16:05:36.178Z,32.05
2022-11-29T16:08:07.744Z,32.30
2022-11-29T16:10:40.152Z,33.70
2022-11-29T16:16:23.354Z,37.80
2022-11-29T16:18:51.032Z,44.67
2022-11-29T16:21:31.056Z,35.70
2022-11-29T16:23:58.809Z,27.23
2022-11-29T16:26:35.725Z,33.53
2022-11-29T16:29:02.808Z,30.35
2022-11-29T16:31:38.325Z,32.75
2022-11-29T16:34:18.447Z,35.80
2022-11-29T16:36:45.772Z,40.83
2022-11-29T16:39:23.666Z,39.85
2022-11-29T16:42:12.226Z,34.35
2022-11-29T16:44:39.464Z,50.47
2022-11-29T16:47:18.703Z,36.00
2022-11-29T16:49:46.341Z,40.35
2022-11-29T16:52:28.374Z,34.85
2022-11-29T16:54:55.518Z,41.55
2022-11-29T16:57:22.884Z,40.65
2022-11-29T16:59:50.454Z,39.28
2022-11-29T17:02:17.900Z,38.78
2022-11-29T17:04:45.479Z,49.85
2022-11-29T17:07:27.939Z,39.85
2022-11-29T17:09:55.997Z,37.80
2022-11-29T17:12:23.026Z,55.80
2022-11-29T17:14:50.037Z,42.08
2022-11-29T17:17:19.545Z,38.75
2022-11-29T17:19:46.589Z,46.03
2022-11-29T17:22:13.828Z,49.67
2022-11-29T17:24:46.221Z,63.58
2022-11-29T17:27:14.962Z,52.08
2022-11-29T17:29:41.993Z,52.58
2022-11-29T17:32:10.254Z,46.70
2022-11-29T17:34:37.321Z,47.65
2022-11-29T17:37:04.310Z,50.85
2022-11-29T17:39:31.913Z,60.58
2022-11-29T17:41:58.914Z,55.47
2022-11-29T17:44:25.968Z,50.80
2022-11-29T17:46:53.014Z,66.28
2022-11-29T17:49:20.057Z,58.90
2022-11-29T17:51:53.066Z,65.00
2022-11-29T17:54:21.394Z,52.00
2022-11-29T17:56:49.427Z,55.35
2022-11-29T17:59:16.549Z,72.55
2022-11-29T18:01:43.726Z,66.45
2022-11-29T18:04:10.805Z,66.72
2022-11-29T18:06:40.088Z,74.75
2022-11-29T18:09:09.344Z,74.50
2022-11-29T18:11:46.363Z,68.45
2022-11-29T18:14:23.619Z,76.95
2022-11-29T18:16:51.404Z,77.25
2022-11-29T18:19:20.259Z,86.65
2022-11-29T18:21:51.571Z,65.35
2022-11-29T18:24:18.932Z,70.72
2022-11-29T18:26:46.023Z,73.45
2022-11-29T18:29:13.113Z,72.82
2022-11-29T18:31:43.070Z,61.78
2022-11-29T18:34:11.819Z,49.40
2022-11-29T18:36:44.930Z,59.03
2022-11-29T18:39:14.981Z,50.20
2022-11-29T18:41:44.593Z,62.45
2022-11-29T18:44:14.114Z,61.17
2022-11-29T18:46:43.432Z,68.95
2022-11-29T18:49:13.611Z,60.85
2022-11-29T18:51:44.240Z,66.03
2022-11-29T18:54:11.482Z,57.88
2022-11-29T18:56:38.747Z,56.05
2022-11-29T18:59:11.457Z,64.63
2022-11-29T19:01:43.127Z,69.47
2022-11-29T19:04:12.738Z,80.90
2022-11-29T19:06:40.993Z,60.28
2022-11-29T19:09:13.097Z,71.35
2022-11-29T19:11:40.555Z,78.82
2022-11-29T19:14:11.428Z,68.72
2022-11-29T19:16:41.579Z,75.10
2022-11-29T19:19:08.768Z,80.63
2022-11-29T19:21:36.058Z,73.43
2022-11-29T19:24:07.485Z,92.88
2022-11-29T19:26:34.605Z,92.57
2022-11-29T19:29:01.811Z,87.30
2022-11-29T19:31:29.286Z,93.40
2022-11-29T19:33:57.467Z,74.07
2022-11-29T19:36:29.772Z,85.18
2022-11-29T19:38:59.587Z,90.45
2022-11-29T19:41:29.800Z,90.65
2022-11-29T19:44:02.455Z,96.45
2022-11-29T19:46:38.136Z,95.88
2022-11-29T19:49:06.890Z,96.78
2022-11-29T19:51:35.475Z,99.35
2022-11-29T19:54:05.619Z,103.22
2022-11-29T19:56:33.064Z,102.32
2022-11-29T19:59:00.174Z,83.18
2022-11-29T20:01:40.205Z,81.32
2022-11-29T20:04:08.285Z,89.40
2022-11-29T20:06:35.678Z,91.63
2022-11-29T20:09:02.975Z,101.57
2022-11-29T20:11:30.673Z,95.38
2022-11-29T20:14:00.857Z,86.78
2022-11-29T20:16:29.667Z,103.10
2022-11-29T20:18:57.693Z,77.00
2022-11-29T20:21:30.358Z,79.45
2022-11-29T20:24:05.563Z,89.88
2022-11-29T20:26:35.890Z,87.32
2022-11-29T20:29:04.584Z,106.18
2022-11-29T20:31:32.943Z,87.47
2022-11-29T20:34:00.592Z,88.85
2022-11-29T20:36:46.212Z,99.53
2022-11-29T20:39:43.569Z,89.43
2022-11-29T20:42:10.606Z,83.50
2022-11-29T20:44:45.472Z,92.40
2022-11-29T20:47:20.844Z,74.18
2022-11-29T20:49:48.877Z,83.10
2022-11-29T20:52:32.047Z,83.85
2022-11-29T20:54:59.191Z,79.82
2022-11-29T20:57:26.231Z,83.70
2022-11-29T20:59:53.316Z,89.28
2022-11-29T21:02:21.011Z,88.90
2022-11-29T21:04:48.954Z,86.03
2022-11-29T21:07:16.464Z,82.03
2022-11-29T21:09:43.583Z,81.45
2022-11-29T21:12:11.232Z,84.55
2022-11-29T21:14:38.655Z,106.47
2022-11-29T21:17:06.554Z,102.30
2022-11-29T21:19:34.185Z,80.72
2022-11-29T21:22:23.178Z,90.18
2022-11-29T21:25:14.250Z,88.60
2022-11-29T21:27:41.821Z,90.43
2022-11-29T21:30:21.726Z,86.85
2022-11-29T21:32:49.563Z,90.43
2022-11-29T21:35:17.289Z,100.35
2022-11-29T21:37:45.268Z,99.60
2022-11-29T21:40:13.625Z,85.57
2022-11-29T21:42:41.062Z,95.47
2022-11-29T21:45:14.800Z,79.60
2022-11-29T21:47:43.992Z,97.88
2022-11-29T21:50:12.205Z,89.20
2022-11-29T21:52:39.342Z,93.88
2022-11-29T21:55:06.626Z,82.38
2022-11-29T21:57:33.713Z,91.97
2022-11-29T22:00:00.860Z,89.35
2022-11-29T22:02:27.976Z,75.25
2022-11-29T22:04:55.067Z,100.00
2022-11-29T22:07:22.099Z,83.97
2022-11-29T22:09:49.140Z,85.95
2022-11-29T22:12:33.171Z,97.25
2022-11-29T22:15:01.633Z,82.82
2022-11-29T22:17:28.743Z,90.40
2022-11-29T22:19:55.755Z,87.15
2022-11-29T22:22:23.642Z,89.15
2022-11-29T22:24:53.085Z,94.57
2022-11-29T22:27:20.695Z,113.32
2022-11-29T22:29:47.832Z,89.65
2022-11-29T22:32:15.192Z,108.80
2022-11-29T22:34:42.472Z,89.90
2022-11-29T22:37:09.698Z,92.30
2022-11-29T22:39:36.685Z,85.25
2022-11-29T22:42:03.819Z,88.28
2022-11-29T22:44:31.229Z,87.50
2022-11-29T22:46:58.327Z,88.07
2022-11-29T22:49:25.531Z,89.45
2022-11-29T22:51:53.345Z,90.45
2022-11-29T22:54:20.614Z,74.97
2022-11-29T22:56:47.739Z,87.50
2022-11-29T22:59:14.744Z,83.35
2022-11-29T23:01:42.470Z,85.30
2022-11-29T23:04:11.155Z,95.35
2022-11-29T23:06:41.389Z,83.03
2022-11-29T23:09:12.046Z,86.18
2022-11-29T23:11:39.285Z,99.38
2022-11-29T23:14:06.412Z,85.50
2022-11-29T23:16:33.658Z,97.57
2022-11-29T23:19:02.949Z,87.38
2022-11-29T23:21:32.702Z,97.13
2022-11-29T23:24:00.862Z,87.80
2022-11-29T23:26:30.612Z,99.93
2022-11-29T23:28:58.350Z,89.70
2022-11-29T23:31:25.495Z,90.03
2022-11-29T23:33:52.593Z,100.53
2022-11-29T23:36:20.032Z,80.18
2022-11-29T23:38:47.451Z,99.00
2022-11-29T23:41:14.844Z,93.70
2022-11-29T23:43:42.341Z,85.70
2022-11-29T23:46:13.625Z,93.85
2022-11-29T23:48:41.416Z,78.47
2022-11-29T23:51:09.158Z,85.90
2022-11-29T23:53:36.437Z,86.53
2022-11-29T23:56:06.773Z,92.55
2022-11-29T23:58:35.621Z,83.55
